createdAt,value
2019-02-22T00:01:22.215Z,30.57
2019-02-22T00:03:49.712Z,29.30
2019-02-22T00:06:17.020Z,29.70
2019-02-22T00:08:44.424Z,27.57
2019-02-22T00:11:11.758Z,27.17
2019-02-22T00:13:39.085Z,25.60
2019-02-22T00:16:06.457Z,26.97
2019-02-22T00:18:33.859Z,25.70
2019-02-22T00:21:01.253Z,24.30
2019-02-22T00:23:28.569Z,24.50
2019-02-22T00:25:56.015Z,24.20
2019-02-22T00:28:23.441Z,22.97
2019-02-22T00:30:50.814Z,23.27
2019-02-22T00:33:18.123Z,24.83
2019-02-22T00:35:45.598Z,23.67
2019-02-22T00:38:12.904Z,24.00
2019-02-22T00:40:40.264Z,22.57
2019-02-22T00:43:07.609Z,24.80
2019-02-22T00:45:34.964Z,24.37
2019-02-22T00:48:02.363Z,23.43
2019-02-22T00:50:29.740Z,24.53
2019-02-22T00:52:57.069Z,23.33
2019-02-22T00:55:24.448Z,22.33
2019-02-22T00:57:51.815Z,23.93
2019-02-22T01:00:19.223Z,24.10
2019-02-22T01:02:46.975Z,23.93
2019-02-22T01:05:14.375Z,22.73
2019-02-22T01:07:41.821Z,23.53
2019-02-22T01:10:09.251Z,24.53
2019-02-22T01:12:36.881Z,25.30
2019-02-22T01:15:04.436Z,23.07
2019-02-22T01:17:31.772Z,25.43
2019-02-22T01:19:59.198Z,22.97
2019-02-22T01:22:26.571Z,24.53
2019-02-22T01:24:54.351Z,23.33
2019-02-22T01:27:21.796Z,25.97
2019-02-22T01:29:49.151Z,23.03
2019-02-22T01:32:16.571Z,25.53
2019-02-22T01:34:43.926Z,24.13
2019-02-22T01:37:11.356Z,23.83
2019-02-22T01:39:38.726Z,24.40
2019-02-22T01:42:06.199Z,24.53
2019-02-22T01:44:33.658Z,23.57
2019-02-22T01:47:01.090Z,24.23
2019-02-22T01:49:28.451Z,22.80
2019-02-22T01:51:55.932Z,23.77
2019-02-22T01:54:23.475Z,24.83
2019-02-22T01:56:51.030Z,24.80
2019-02-22T01:59:18.476Z,22.03
2019-02-22T02:01:45.881Z,23.70
2019-02-22T02:04:13.272Z,23.67
2019-02-22T02:06:40.702Z,22.70
2019-02-22T02:09:08.106Z,24.80
2019-02-22T02:11:35.602Z,21.47
2019-02-22T02:14:03.036Z,21.13
2019-02-22T02:16:30.514Z,21.23
2019-02-22T02:18:57.957Z,21.90
2019-02-22T02:21:25.421Z,21.43
2019-02-22T02:23:52.950Z,21.63
2019-02-22T02:26:20.387Z,21.57
2019-02-22T02:28:47.905Z,20.50
2019-02-22T02:31:15.354Z,21.37
2019-02-22T02:33:42.748Z,21.70
2019-02-22T02:36:10.206Z,21.00
2019-02-22T02:38:37.715Z,20.53
2019-02-22T02:41:10.838Z,19.33
2019-02-22T02:43:34.536Z,19.93
2019-02-22T02:46:01.942Z,19.10
2019-02-22T02:48:29.420Z,20.00
2019-02-22T02:50:56.818Z,19.20
2019-02-22T02:53:24.272Z,19.80
2019-02-22T02:55:51.700Z,18.57
2019-02-22T02:58:19.097Z,19.13
2019-02-22T03:00:46.504Z,17.10
2019-02-22T03:03:14.091Z,18.67
2019-02-22T03:05:53.635Z,17.77
2019-02-22T03:08:22.423Z,18.80
2019-02-22T03:10:49.923Z,18.53
2019-02-22T03:13:17.429Z,18.27
2019-02-22T03:15:45.216Z,19.33
2019-02-22T03:18:12.673Z,20.27
2019-02-22T03:20:40.072Z,19.63
2019-02-22T03:23:07.531Z,19.13
2019-02-22T03:25:34.979Z,21.93
2019-02-22T03:28:02.861Z,22.23
2019-02-22T03:30:30.296Z,21.20
2019-02-22T03:32:57.702Z,19.97
2019-02-22T03:35:25.186Z,21.23
2019-02-22T03:37:52.719Z,21.00
2019-02-22T03:40:20.112Z,22.27
2019-02-22T03:42:47.583Z,22.17
2019-02-22T03:45:14.942Z,21.07
2019-02-22T03:47:42.384Z,21.33
2019-02-22T03:50:09.909Z,21.77
2019-02-22T03:52:46.586Z,22.37
2019-02-22T03:55:13.983Z,21.80
2019-02-22T03:57:41.378Z,22.17
2019-02-22T04:00:09.267Z,23.07
2019-02-22T04:02:36.697Z,24.33
2019-02-22T04:05:04.798Z,24.20
2019-02-22T04:07:32.216Z,24.10
2019-02-22T04:09:59.645Z,24.20
2019-02-22T04:12:27.106Z,24.07
2019-02-22T04:14:54.567Z,23.70
2019-02-22T04:17:21.941Z,23.67
2019-02-22T04:19:49.388Z,23.63
2019-02-22T04:22:16.801Z,23.07
2019-02-22T04:24:44.341Z,23.20
2019-02-22T04:27:11.748Z,22.27
2019-02-22T04:29:39.223Z,21.90
2019-02-22T04:32:06.628Z,22.70
2019-02-22T04:34:34.251Z,21.73
2019-02-22T04:37:01.625Z,23.17
2019-02-22T04:39:29.046Z,21.37
2019-02-22T04:41:58.281Z,20.37
2019-02-22T04:44:25.756Z,23.00
2019-02-22T04:46:53.207Z,22.20
2019-02-22T04:49:20.646Z,21.47
2019-02-22T04:51:48.018Z,22.47
2019-02-22T04:54:15.456Z,20.97
2019-02-22T04:56:43.273Z,20.77
2019-02-22T04:59:10.741Z,21.67
2019-02-22T05:01:38.146Z,20.97
2019-02-22T05:04:07.001Z,21.67
2019-02-22T05:06:34.393Z,22.17
2019-02-22T05:09:01.911Z,21.90
2019-02-22T05:11:29.308Z,22.93
2019-02-22T05:13:56.762Z,22.70
2019-02-22T05:16:24.177Z,24.37
2019-02-22T05:18:51.607Z,22.73
2019-02-22T05:21:19.496Z,22.80
2019-02-22T05:23:46.969Z,23.70
2019-02-22T05:26:14.355Z,23.73
2019-02-22T05:28:41.786Z,23.50
2019-02-22T05:31:09.176Z,24.67
2019-02-22T05:33:36.759Z,22.87
2019-02-22T05:36:04.267Z,24.87
2019-02-22T05:38:31.681Z,23.10
2019-02-22T05:40:59.089Z,23.37
2019-02-22T05:43:26.458Z,25.90
2019-02-22T05:45:53.877Z,25.40
2019-02-22T05:48:21.243Z,24.53
2019-02-22T05:50:48.669Z,24.50
2019-02-22T05:53:16.046Z,23.50
2019-02-22T05:55:44.420Z,23.77
2019-02-22T05:58:11.946Z,23.43
2019-02-22T06:00:39.383Z,24.30
2019-02-22T06:03:06.838Z,24.53
2019-02-22T06:05:34.301Z,24.73
2019-02-22T06:08:01.696Z,23.57
2019-02-22T06:10:29.115Z,24.90
2019-02-22T06:12:57.136Z,24.30
2019-02-22T06:15:24.656Z,23.73
2019-02-22T06:17:52.054Z,23.60
2019-02-22T06:20:19.477Z,24.30
2019-02-22T06:22:46.856Z,23.90
2019-02-22T06:25:14.364Z,24.27
2019-02-22T06:27:41.747Z,25.07
2019-02-22T06:30:09.347Z,24.87
2019-02-22T06:32:36.721Z,24.40
2019-02-22T06:35:04.412Z,24.80
2019-02-22T06:37:31.811Z,24.10
2019-02-22T06:39:59.217Z,24.53
2019-02-22T06:42:26.581Z,24.13
2019-02-22T06:44:54.341Z,23.60
2019-02-22T06:47:22.882Z,25.17
2019-02-22T06:49:50.541Z,23.60
2019-02-22T06:52:17.987Z,23.73
2019-02-22T06:54:45.388Z,24.03
2019-02-22T06:57:12.805Z,25.63
2019-02-22T06:59:40.202Z,23.93
2019-02-22T07:02:07.591Z,22.67
2019-02-22T07:04:35.011Z,24.90
2019-02-22T07:07:02.586Z,23.80
2019-02-22T07:09:29.958Z,22.90
2019-02-22T07:12:02.626Z,23.13
2019-02-22T07:14:30.002Z,22.50
2019-02-22T07:16:57.420Z,24.13
2019-02-22T07:19:24.832Z,23.93
2019-02-22T07:21:53.185Z,22.90
2019-02-22T07:24:20.801Z,25.07
2019-02-22T07:26:48.224Z,23.33
2019-02-22T07:29:15.576Z,24.40
2019-02-22T07:31:43.001Z,22.77
2019-02-22T07:34:10.374Z,25.10
2019-02-22T07:36:37.775Z,23.43
2019-02-22T07:39:05.983Z,23.73
2019-02-22T07:41:33.436Z,23.40
2019-02-22T07:44:00.838Z,21.80
2019-02-22T07:46:28.253Z,23.73
2019-02-22T07:48:55.776Z,23.00
2019-02-22T07:51:23.261Z,23.37
2019-02-22T07:53:50.646Z,22.07
2019-02-22T07:56:19.179Z,22.00
2019-02-22T07:58:46.844Z,23.60
2019-02-22T08:01:14.291Z,22.70
2019-02-22T08:03:41.703Z,23.67
2019-02-22T08:06:09.122Z,23.03
2019-02-22T08:08:36.476Z,22.77
2019-02-22T08:11:03.968Z,23.70
2019-02-22T08:13:31.370Z,23.07
2019-02-22T08:15:58.857Z,23.00
2019-02-22T08:18:26.247Z,22.60
2019-02-22T08:20:53.691Z,22.17
2019-02-22T08:23:21.066Z,22.83
2019-02-22T08:25:48.508Z,23.20
2019-02-22T08:28:15.941Z,24.07
2019-02-22T08:30:43.323Z,24.53
2019-02-22T08:33:10.776Z,23.83
2019-02-22T08:35:38.127Z,24.73
2019-02-22T08:38:05.599Z,22.57
2019-02-22T08:40:32.967Z,25.20
2019-02-22T08:43:00.371Z,25.70
2019-02-22T08:45:27.778Z,24.37
2019-02-22T08:47:55.542Z,26.07
2019-02-22T08:50:22.916Z,26.13
2019-02-22T08:52:50.377Z,25.67
2019-02-22T08:55:17.778Z,27.90
2019-02-22T08:57:45.229Z,26.07
2019-02-22T09:00:14.086Z,29.63
2019-02-22T09:02:41.511Z,27.63
2019-02-22T09:05:08.874Z,31.37
2019-02-22T09:07:36.311Z,28.83
2019-02-22T09:10:04.481Z,29.63
2019-02-22T09:12:31.928Z,32.33
2019-02-22T09:14:59.308Z,33.00
2019-02-22T09:17:26.708Z,31.87
2019-02-22T09:19:54.048Z,31.37
2019-02-22T09:22:23.098Z,29.77
2019-02-22T09:24:50.824Z,29.77
2019-02-22T09:27:18.258Z,30.37
2019-02-22T09:29:45.610Z,30.77
2019-02-22T09:32:13.022Z,29.17
2019-02-22T09:34:40.819Z,31.50
2019-02-22T09:37:08.218Z,30.13
2019-02-22T09:39:35.582Z,28.07
2019-02-22T09:42:03.003Z,29.20
2019-02-22T09:44:30.382Z,29.43
2019-02-22T09:46:58.840Z,27.80
2019-02-22T09:49:26.238Z,29.47
2019-02-22T09:51:53.621Z,28.83
2019-02-22T09:54:21.037Z,28.57
2019-02-22T09:56:48.410Z,29.17
2019-02-22T09:59:15.929Z,29.70
2019-02-22T10:01:43.370Z,29.63
2019-02-22T10:04:10.935Z,28.23
2019-02-22T10:06:38.287Z,28.20
2019-02-22T10:09:06.158Z,28.40
2019-02-22T10:11:33.539Z,29.07
2019-02-22T10:14:06.595Z,31.60
2019-02-22T10:16:30.203Z,32.03
2019-02-22T10:18:57.882Z,30.47
2019-02-22T10:21:25.238Z,28.43
2019-02-22T10:23:52.803Z,27.10
2019-02-22T10:26:21.485Z,29.20
2019-02-22T10:28:49.100Z,29.07
2019-02-22T10:31:16.819Z,31.90
2019-02-22T10:33:44.227Z,33.43
2019-02-22T10:36:11.758Z,33.73
2019-02-22T10:38:39.148Z,32.53
2019-02-22T10:41:06.489Z,34.03
2019-02-22T10:43:33.919Z,32.93
2019-02-22T10:46:01.296Z,33.10
2019-02-22T10:48:28.741Z,34.60
2019-02-22T10:50:56.130Z,34.27
2019-02-22T10:53:23.713Z,31.63
2019-02-22T10:55:51.083Z,30.80
2019-02-22T10:58:19.181Z,29.77
2019-02-22T11:00:46.558Z,28.67
2019-02-22T11:03:13.984Z,30.03
2019-02-22T11:05:41.730Z,29.03
2019-02-22T11:08:09.178Z,29.67
2019-02-22T11:10:36.565Z,30.57
2019-02-22T11:13:03.943Z,27.83
2019-02-22T11:15:31.384Z,30.10
2019-02-22T11:17:59.094Z,28.80
2019-02-22T11:20:26.533Z,28.97
2019-02-22T11:22:53.913Z,28.80
2019-02-22T11:25:21.389Z,27.30
2019-02-22T11:27:48.773Z,25.00
2019-02-22T11:30:16.327Z,25.80
2019-02-22T11:32:43.735Z,25.67
2019-02-22T11:35:11.188Z,23.33
2019-02-22T11:37:38.620Z,24.67
2019-02-22T11:40:06.024Z,23.00
2019-02-22T11:42:33.408Z,25.07
2019-02-22T11:45:00.843Z,22.97
2019-02-22T11:47:28.316Z,22.53
2019-02-22T11:49:55.764Z,22.53
2019-02-22T11:52:23.148Z,20.53
2019-02-22T11:54:50.569Z,21.13
2019-02-22T11:57:19.584Z,22.93
2019-02-22T11:59:47.238Z,22.73
2019-02-22T12:02:14.646Z,22.13
2019-02-22T12:04:42.078Z,21.23
2019-02-22T12:07:10.563Z,21.93
2019-02-22T12:09:37.968Z,20.70
2019-02-22T12:12:05.365Z,19.20
2019-02-22T12:14:32.798Z,20.13
2019-02-22T12:17:00.602Z,20.60
2019-02-22T12:19:28.173Z,21.27
2019-02-22T12:21:55.573Z,19.10
2019-02-22T12:24:23.049Z,20.37
2019-02-22T12:26:50.459Z,18.97
2019-02-22T12:29:17.858Z,20.57
2019-02-22T12:31:45.290Z,21.27
2019-02-22T12:34:13.793Z,20.10
2019-02-22T12:36:41.328Z,21.20
2019-02-22T12:39:08.918Z,19.73
2019-02-22T12:41:36.346Z,22.10
2019-02-22T12:44:03.967Z,21.00
2019-02-22T12:46:31.443Z,21.77
2019-02-22T12:48:58.859Z,19.63
2019-02-22T12:51:26.309Z,19.63
2019-02-22T12:53:53.665Z,21.40
2019-02-22T12:56:27.513Z,18.20
2019-02-22T12:58:50.790Z,18.87
2019-02-22T13:01:18.308Z,21.10
2019-02-22T13:03:46.038Z,18.97
2019-02-22T13:06:13.628Z,21.73
2019-02-22T13:08:41.000Z,17.77
2019-02-22T13:11:09.623Z,18.03
2019-02-22T13:13:37.149Z,16.40
2019-02-22T13:16:12.457Z,11.60
2019-02-22T13:18:39.885Z,12.00
2019-02-22T13:21:07.400Z,11.10
2019-02-22T13:23:34.879Z,11.90
2019-02-22T13:26:02.562Z,12.73
2019-02-22T13:28:30.135Z,11.87
2019-02-22T13:30:57.660Z,11.80
2019-02-22T13:33:25.125Z,12.43
2019-02-22T13:35:52.685Z,11.43
2019-02-22T13:38:20.345Z,10.53
2019-02-22T13:40:49.310Z,10.97
2019-02-22T13:43:17.075Z,10.60
2019-02-22T13:45:44.684Z,10.90
2019-02-22T13:48:12.245Z,12.27
2019-02-22T13:50:39.658Z,11.83
2019-02-22T13:53:08.285Z,11.27
2019-02-22T13:55:35.693Z,11.10
2019-02-22T13:58:05.520Z,10.57
2019-02-22T14:00:33.157Z,11.50
2019-02-22T14:03:00.746Z,10.80
2019-02-22T14:05:28.408Z,12.17
2019-02-22T14:07:56.160Z,11.33
2019-02-22T14:10:24.181Z,12.77
2019-02-22T14:12:51.788Z,12.60
2019-02-22T14:15:19.446Z,12.23
2019-02-22T14:17:47.027Z,11.20
2019-02-22T14:20:14.650Z,10.27
2019-02-22T14:22:42.266Z,11.33
2019-02-22T14:25:10.186Z,9.00
2019-02-22T14:27:37.928Z,10.27
2019-02-22T14:30:06.776Z,8.43
2019-02-22T14:32:34.370Z,7.60
2019-02-22T14:35:02.149Z,7.33
2019-02-22T14:37:31.818Z,7.40
2019-02-22T14:40:03.424Z,7.30
2019-02-22T14:42:29.492Z,8.10
2019-02-22T14:44:57.120Z,8.17
2019-02-22T14:47:24.791Z,8.10
2019-02-22T14:49:55.055Z,7.93
2019-02-22T14:52:22.924Z,6.90
2019-02-22T14:54:50.829Z,7.57
2019-02-22T14:57:18.860Z,7.27
2019-02-22T14:59:47.776Z,6.67
2019-02-22T15:02:15.616Z,6.63
2019-02-22T15:04:43.407Z,6.90
2019-02-22T15:07:11.218Z,6.33
2019-02-22T15:09:39.105Z,6.70
2019-02-22T15:12:07.551Z,6.57
2019-02-22T15:14:35.355Z,6.97
2019-02-22T15:17:22.659Z,8.47
2019-02-22T15:19:50.696Z,7.37
2019-02-22T15:22:21.535Z,7.60
2019-02-22T15:24:49.440Z,7.50
2019-02-22T15:27:17.600Z,7.93
2019-02-22T15:29:45.270Z,7.77
2019-02-22T15:32:13.316Z,8.07
2019-02-22T15:34:41.495Z,8.20
2019-02-22T15:37:09.445Z,8.23
2019-02-22T15:39:37.093Z,7.63
2019-02-22T15:42:05.259Z,7.27
2019-02-22T15:44:33.218Z,8.23
2019-02-22T15:47:11.385Z,8.67
2019-02-22T15:49:31.486Z,7.80
2019-02-22T15:51:59.111Z,8.03
2019-02-22T15:54:26.901Z,7.87
2019-02-22T15:56:54.421Z,8.07
2019-02-22T15:59:22.207Z,7.77
2019-02-22T16:01:55.167Z,8.40
2019-02-22T16:04:34.899Z,8.10
2019-02-22T16:07:02.512Z,8.57
2019-02-22T16:09:30.405Z,9.70
2019-02-22T16:11:58.135Z,10.20
2019-02-22T16:14:25.986Z,10.17
2019-02-22T16:16:53.762Z,9.53
2019-02-22T16:19:21.796Z,8.70
2019-02-22T16:21:49.560Z,9.40
2019-02-22T16:24:17.401Z,10.03
2019-02-22T16:26:45.206Z,11.00
2019-02-22T16:29:12.911Z,11.30
2019-02-22T16:31:40.587Z,10.90
2019-02-22T16:34:08.665Z,10.13
2019-02-22T16:36:36.452Z,11.27
2019-02-22T16:39:07.041Z,11.40
2019-02-22T16:41:34.901Z,11.87
2019-02-22T16:44:02.636Z,10.33
2019-02-22T16:46:35.195Z,11.90
2019-02-22T16:49:01.974Z,11.00
2019-02-22T16:51:29.828Z,11.00
2019-02-22T16:53:59.200Z,11.93
2019-02-22T16:56:26.896Z,10.47
2019-02-22T16:58:54.720Z,10.23
2019-02-22T17:01:22.390Z,11.33
2019-02-22T17:03:50.140Z,11.60
2019-02-22T17:06:17.990Z,11.77
2019-02-22T17:08:45.746Z,11.90
2019-02-22T17:11:13.672Z,11.93
2019-02-22T17:13:41.485Z,12.10
2019-02-22T17:16:09.650Z,12.07
2019-02-22T17:18:37.810Z,12.03
2019-02-22T17:21:05.744Z,12.17
2019-02-22T17:23:33.500Z,12.17
2019-02-22T17:26:01.666Z,11.40
2019-02-22T17:28:29.690Z,13.30
2019-02-22T17:30:57.666Z,12.70
2019-02-22T17:33:25.482Z,12.13
2019-02-22T17:35:53.305Z,12.90
2019-02-22T17:38:20.986Z,14.07
2019-02-22T17:40:48.882Z,13.40
2019-02-22T17:43:16.700Z,12.93
2019-02-22T17:45:45.125Z,13.93
2019-02-22T17:48:12.810Z,13.80
2019-02-22T17:50:40.670Z,14.50
2019-02-22T17:53:09.106Z,15.17
2019-02-22T17:55:36.925Z,13.87
2019-02-22T17:58:04.798Z,14.03
2019-02-22T18:00:32.533Z,14.80
2019-02-22T18:03:00.290Z,15.67
2019-02-22T18:05:28.045Z,14.40
2019-02-22T18:07:55.859Z,14.73
2019-02-22T18:10:23.605Z,14.90
2019-02-22T18:12:51.292Z,15.57
2019-02-22T18:15:19.525Z,15.20
2019-02-22T18:17:47.302Z,15.53
2019-02-22T18:20:15.242Z,15.20
2019-02-22T18:22:43.188Z,15.97
2019-02-22T18:25:11.286Z,15.10
2019-02-22T18:27:39.080Z,15.60
2019-02-22T18:30:08.395Z,15.67
2019-02-22T18:32:36.190Z,17.07
2019-02-22T18:35:04.416Z,16.00
2019-02-22T18:37:33.525Z,15.80
2019-02-22T18:40:01.447Z,16.17
2019-02-22T18:42:29.286Z,15.47
2019-02-22T18:44:57.168Z,17.67
2019-02-22T18:47:24.916Z,16.40
2019-02-22T18:49:52.737Z,18.37
2019-02-22T18:52:20.706Z,16.20
2019-02-22T18:54:48.506Z,17.97
2019-02-22T18:57:16.370Z,17.47
2019-02-22T18:59:44.025Z,18.13
2019-02-22T19:02:14.246Z,17.67
2019-02-22T19:04:42.230Z,17.63
2019-02-22T19:07:10.211Z,17.53
2019-02-22T19:09:38.109Z,19.17
2019-02-22T19:12:06.125Z,18.73
2019-02-22T19:14:33.922Z,18.07
2019-02-22T19:17:03.606Z,17.77
2019-02-22T19:19:31.608Z,17.30
2019-02-22T19:21:59.413Z,19.03
2019-02-22T19:24:33.283Z,17.63
2019-02-22T19:27:01.196Z,16.17
2019-02-22T19:29:30.445Z,17.77
2019-02-22T19:31:58.315Z,18.33
2019-02-22T19:34:26.145Z,18.70
2019-02-22T19:36:54.211Z,16.57
2019-02-22T19:39:22.140Z,15.80
2019-02-22T19:41:50.196Z,16.47
2019-02-22T19:44:18.195Z,15.50
2019-02-22T19:46:46.135Z,15.57
2019-02-22T19:49:14.065Z,15.53
2019-02-22T19:51:42.145Z,16.43
2019-02-22T19:54:10.105Z,14.60
2019-02-22T19:56:37.966Z,15.67
2019-02-22T19:59:08.564Z,14.67
2019-02-22T20:01:36.440Z,15.67
2019-02-22T20:04:06.925Z,14.73
2019-02-22T20:06:35.030Z,14.63
2019-02-22T20:09:05.605Z,16.03
2019-02-22T20:11:33.486Z,14.33
2019-02-22T20:14:01.451Z,14.77
2019-02-22T20:16:29.371Z,14.53
2019-02-22T20:18:57.150Z,16.17
2019-02-22T20:21:25.455Z,14.33
2019-02-22T20:23:53.805Z,14.23
2019-02-22T20:26:22.886Z,15.40
2019-02-22T20:28:50.866Z,15.80
2019-02-22T20:31:20.553Z,15.87
2019-02-22T20:33:48.785Z,15.37
2019-02-22T20:36:27.730Z,16.17
2019-02-22T20:38:48.146Z,15.17
2019-02-22T20:41:15.924Z,16.23
2019-02-22T20:43:43.925Z,16.23
2019-02-22T20:46:12.196Z,15.27
2019-02-22T20:48:40.545Z,15.63
2019-02-22T20:51:08.405Z,15.03
2019-02-22T20:53:36.280Z,14.77
2019-02-22T20:56:04.245Z,16.43
2019-02-22T20:58:32.029Z,16.47
2019-02-22T21:00:59.740Z,16.07
2019-02-22T21:03:27.525Z,15.33
2019-02-22T21:05:55.305Z,16.13
2019-02-22T21:08:24.772Z,16.60
2019-02-22T21:10:52.796Z,15.30
2019-02-22T21:13:20.841Z,14.77
2019-02-22T21:15:48.721Z,15.80
2019-02-22T21:18:16.789Z,15.87
2019-02-22T21:20:44.715Z,14.93
2019-02-22T21:23:12.671Z,15.03
2019-02-22T21:25:40.639Z,15.50
2019-02-22T21:28:08.438Z,15.27
2019-02-22T21:30:36.115Z,14.60
2019-02-22T21:33:04.000Z,14.87
2019-02-22T21:35:31.856Z,15.63
2019-02-22T21:37:59.721Z,14.50
2019-02-22T21:40:30.631Z,14.77
2019-02-22T21:42:58.385Z,15.27
2019-02-22T21:45:26.245Z,14.80
2019-02-22T21:47:55.766Z,15.30
2019-02-22T21:50:23.725Z,14.27
2019-02-22T21:52:51.459Z,15.13
2019-02-22T21:55:19.256Z,15.90
2019-02-22T21:57:47.155Z,16.00
2019-02-22T22:00:16.750Z,15.80
2019-02-22T22:02:44.317Z,15.63
2019-02-22T22:05:11.890Z,16.00
2019-02-22T22:07:39.519Z,14.77
2019-02-22T22:10:07.270Z,15.13
2019-02-22T22:12:34.676Z,16.90
2019-02-22T22:15:02.130Z,15.30
2019-02-22T22:17:29.682Z,14.33
2019-02-22T22:19:57.115Z,15.10
2019-02-22T22:22:24.640Z,17.27
2019-02-22T22:24:52.391Z,15.40
2019-02-22T22:27:19.825Z,15.60
2019-02-22T22:29:47.236Z,16.43
2019-02-22T22:32:14.986Z,16.53
2019-02-22T22:34:42.655Z,16.60
2019-02-22T22:37:14.688Z,15.47
2019-02-22T22:39:42.248Z,15.57
2019-02-22T22:42:09.631Z,16.03
2019-02-22T22:44:37.360Z,15.97
2019-02-22T22:47:04.727Z,16.80
2019-02-22T22:49:32.136Z,14.67
2019-02-22T22:51:59.473Z,14.67
2019-02-22T22:54:26.870Z,15.97
2019-02-22T22:56:54.245Z,15.93
2019-02-22T22:59:21.805Z,14.63
2019-02-22T23:01:49.229Z,16.63
2019-02-22T23:04:16.586Z,14.57
2019-02-22T23:06:44.035Z,16.47
2019-02-22T23:09:19.891Z,16.20
2019-02-22T23:11:47.325Z,16.30
2019-02-22T23:14:14.715Z,14.40
2019-02-22T23:16:42.135Z,16.27
2019-02-22T23:19:09.550Z,16.30
2019-02-22T23:21:36.990Z,15.87
2019-02-22T23:24:04.428Z,16.10
2019-02-22T23:26:31.876Z,16.47
2019-02-22T23:29:01.764Z,15.13
2019-02-22T23:31:28.940Z,15.13
2019-02-22T23:33:56.297Z,15.60
2019-02-22T23:36:24.189Z,15.33
2019-02-22T23:38:51.547Z,15.43
2019-02-22T23:41:18.956Z,13.93
2019-02-22T23:43:46.320Z,14.63
2019-02-22T23:46:13.735Z,15.00
2019-02-22T23:48:41.110Z,14.97
2019-02-22T23:51:08.530Z,13.47
2019-02-22T23:53:35.931Z,14.63
2019-02-22T23:56:03.320Z,15.87
2019-02-22T23:58:30.755Z,15.10
